createdAt,value
2022-11-24T00:01:18.399Z,3.88
2022-11-24T00:03:46.712Z,3.67
2022-11-24T00:06:15.796Z,4.68
2022-11-24T00:08:44.840Z,3.65
2022-11-24T00:11:20.247Z,3.72
2022-11-24T00:13:47.433Z,3.80
2022-11-24T00:16:17.134Z,3.97
2022-11-24T00:18:45.814Z,4.00
2022-11-24T00:21:14.242Z,3.55
2022-11-24T00:23:41.186Z,2.85
2022-11-24T00:26:16.800Z,2.80
2022-11-24T00:28:45.287Z,4.25
2022-11-24T00:31:20.872Z,3.03
2022-11-24T00:33:50.133Z,3.70
2022-11-24T00:36:18.525Z,3.63
2022-11-24T00:38:45.972Z,3.75
2022-11-24T00:41:13.236Z,4.10
2022-11-24T00:43:40.259Z,4.40
2022-11-24T00:46:07.140Z,3.33
2022-11-24T00:48:34.232Z,3.90
2022-11-24T00:51:06.620Z,4.05
2022-11-24T00:53:33.775Z,3.88
2022-11-24T00:56:00.746Z,4.50
2022-11-24T00:58:27.519Z,2.97
2022-11-24T01:00:54.497Z,3.33
2022-11-24T01:03:22.693Z,4.03
2022-11-24T01:05:49.443Z,3.83
2022-11-24T01:08:16.363Z,3.58
2022-11-24T01:10:43.125Z,3.83
2022-11-24T01:13:10.201Z,3.95
2022-11-24T01:15:37.079Z,4.10
2022-11-24T01:18:05.322Z,3.63
2022-11-24T01:20:32.727Z,4.38
2022-11-24T01:22:59.519Z,4.43
2022-11-24T01:25:26.430Z,3.60
2022-11-24T01:27:53.381Z,3.75
2022-11-24T01:30:22.036Z,3.42
2022-11-24T01:32:48.954Z,3.85
2022-11-24T01:35:15.727Z,3.10
2022-11-24T01:37:42.511Z,3.33
2022-11-24T01:40:10.124Z,3.28
2022-11-24T01:42:42.901Z,3.33
2022-11-24T01:45:35.700Z,3.13
2022-11-24T01:48:05.446Z,3.75
2022-11-24T01:50:33.766Z,2.78
2022-11-24T01:53:00.611Z,3.20
2022-11-24T01:55:31.938Z,3.30
2022-11-24T01:58:09.877Z,3.03
2022-11-24T02:00:38.670Z,2.72
2022-11-24T02:03:06.637Z,3.67
2022-11-24T02:05:44.543Z,3.58
2022-11-24T02:08:45.251Z,3.38
2022-11-24T02:11:12.046Z,2.20
2022-11-24T02:13:41.265Z,3.30
2022-11-24T02:16:11.444Z,2.53
2022-11-24T02:18:40.343Z,2.50
2022-11-24T02:21:07.958Z,2.58
2022-11-24T02:23:59.712Z,3.47
2022-11-24T02:26:26.558Z,3.65
2022-11-24T02:28:53.499Z,2.72
2022-11-24T02:31:20.420Z,2.40
2022-11-24T02:33:48.707Z,3.30
2022-11-24T02:36:15.876Z,3.13
2022-11-24T02:38:42.591Z,2.65
2022-11-24T02:41:14.824Z,3.13
2022-11-24T02:43:46.889Z,2.80
2022-11-24T02:46:13.688Z,3.83
2022-11-24T02:48:40.586Z,2.40
2022-11-24T02:51:07.521Z,3.08
2022-11-24T02:53:34.454Z,3.33
2022-11-24T02:56:01.494Z,2.30
2022-11-24T02:58:28.270Z,2.38
2022-11-24T03:00:55.337Z,2.42
2022-11-24T03:03:22.302Z,2.47
2022-11-24T03:05:49.426Z,2.30
2022-11-24T03:08:16.711Z,3.22
2022-11-24T03:10:43.649Z,2.38
2022-11-24T03:13:10.709Z,2.50
2022-11-24T03:15:38.126Z,2.03
2022-11-24T03:18:05.213Z,2.35
2022-11-24T03:20:32.390Z,3.75
2022-11-24T03:22:59.186Z,2.55
2022-11-24T03:25:26.222Z,2.22
2022-11-24T03:27:55.478Z,3.10
2022-11-24T03:30:22.249Z,3.25
2022-11-24T03:32:51.709Z,2.88
2022-11-24T03:35:18.631Z,2.63
2022-11-24T03:37:45.521Z,3.00
2022-11-24T03:40:12.639Z,3.22
2022-11-24T03:42:40.394Z,2.22
2022-11-24T03:45:44.786Z,2.63
2022-11-24T03:47:54.969Z,2.65
2022-11-24T03:50:21.715Z,3.25
2022-11-24T03:52:48.455Z,3.17
2022-11-24T03:55:15.290Z,3.08
2022-11-24T03:57:42.063Z,2.67
2022-11-24T04:00:09.816Z,3.22
2022-11-24T04:02:37.212Z,2.63
2022-11-24T04:05:04.893Z,2.90
2022-11-24T04:07:31.669Z,3.10
2022-11-24T04:09:58.548Z,3.35
2022-11-24T04:12:44.020Z,2.60
2022-11-24T04:15:19.245Z,2.92
2022-11-24T04:17:47.147Z,2.90
2022-11-24T04:20:14.029Z,2.30
2022-11-24T04:22:41.013Z,3.45
2022-11-24T04:25:09.098Z,3.03
2022-11-24T04:27:37.184Z,2.30
2022-11-24T04:30:07.671Z,3.60
2022-11-24T04:32:34.734Z,3.30
2022-11-24T04:35:01.450Z,3.00
2022-11-24T04:37:28.160Z,2.97
2022-11-24T04:39:55.284Z,2.95
2022-11-24T04:42:22.202Z,2.72
2022-11-24T04:44:48.926Z,3.17
2022-11-24T04:47:18.494Z,2.80
2022-11-24T04:49:46.930Z,2.90
2022-11-24T04:52:13.643Z,2.92
2022-11-24T04:54:40.474Z,3.22
2022-11-24T04:57:07.494Z,2.90
2022-11-24T04:59:34.191Z,3.58
2022-11-24T05:02:01.065Z,2.72
2022-11-24T05:04:27.849Z,2.72
2022-11-24T05:06:54.586Z,2.80
2022-11-24T05:09:21.289Z,3.28
2022-11-24T05:11:50.363Z,3.20
2022-11-24T05:14:17.229Z,2.40
2022-11-24T05:16:43.967Z,2.83
2022-11-24T05:19:10.796Z,3.03
2022-11-24T05:21:37.504Z,2.50
2022-11-24T05:24:04.682Z,2.67
2022-11-24T05:26:31.483Z,2.78
2022-11-24T05:28:58.381Z,2.30
2022-11-24T05:31:25.165Z,2.28
2022-11-24T05:33:52.491Z,2.67
2022-11-24T05:36:38.081Z,2.47
2022-11-24T05:39:04.858Z,2.63
2022-11-24T05:41:31.710Z,2.00
2022-11-24T05:43:58.478Z,1.77
2022-11-24T05:46:25.236Z,1.90
2022-11-24T05:48:51.943Z,1.80
2022-11-24T05:51:18.690Z,1.50
2022-11-24T05:53:45.535Z,1.90
2022-11-24T05:56:12.322Z,1.50
2022-11-24T05:58:39.151Z,1.45
2022-11-24T06:01:09.881Z,1.40
2022-11-24T06:03:36.608Z,1.90
2022-11-24T06:06:03.964Z,1.85
2022-11-24T06:08:31.613Z,1.92
2022-11-24T06:11:22.638Z,1.60
2022-11-24T06:13:49.654Z,1.80
2022-11-24T06:16:17.444Z,1.65
2022-11-24T06:18:44.340Z,1.17
2022-11-24T06:21:12.022Z,1.77
2022-11-24T06:23:39.757Z,1.50
2022-11-24T06:26:07.065Z,2.25
2022-11-24T06:28:36.489Z,1.58
2022-11-24T06:31:04.255Z,2.65
2022-11-24T06:33:36.029Z,3.17
2022-11-24T06:36:04.727Z,3.83
2022-11-24T06:38:31.861Z,3.42
2022-11-24T06:41:03.603Z,2.38
2022-11-24T06:43:30.821Z,2.80
2022-11-24T06:45:58.368Z,2.97
2022-11-24T06:48:26.376Z,3.25
2022-11-24T06:50:54.067Z,3.28
2022-11-24T06:53:20.790Z,3.20
2022-11-24T06:55:47.945Z,3.90
2022-11-24T06:58:14.651Z,4.00
2022-11-24T07:00:41.792Z,4.82
2022-11-24T07:03:15.480Z,3.85
2022-11-24T07:05:43.801Z,4.28
2022-11-24T07:08:14.682Z,4.70
2022-11-24T07:10:44.478Z,4.38
2022-11-24T07:13:11.347Z,5.25
2022-11-24T07:15:38.173Z,4.90
2022-11-24T07:18:05.175Z,5.30
2022-11-24T07:20:31.926Z,5.30
2022-11-24T07:22:59.003Z,5.70
2022-11-24T07:25:26.019Z,4.60
2022-11-24T07:27:57.645Z,5.68
2022-11-24T07:30:25.414Z,5.63
2022-11-24T07:32:52.740Z,6.13
2022-11-24T07:35:19.462Z,6.10
2022-11-24T07:37:46.373Z,5.90
2022-11-24T07:40:13.190Z,7.18
2022-11-24T07:42:39.907Z,6.18
2022-11-24T07:45:07.235Z,7.45
2022-11-24T07:47:33.969Z,9.18
2022-11-24T07:50:00.604Z,6.82
2022-11-24T07:52:27.222Z,7.35
2022-11-24T07:54:53.908Z,7.35
2022-11-24T07:57:20.530Z,7.78
2022-11-24T07:59:47.186Z,6.85
2022-11-24T08:02:14.398Z,6.53
2022-11-24T08:04:41.090Z,8.40
2022-11-24T08:07:07.851Z,7.18
2022-11-24T08:09:34.538Z,6.97
2022-11-24T08:12:01.619Z,7.10
2022-11-24T08:14:28.526Z,7.03
2022-11-24T08:16:55.478Z,7.68
2022-11-24T08:19:22.600Z,7.90
2022-11-24T08:21:49.382Z,7.10
2022-11-24T08:24:16.926Z,7.35
2022-11-24T08:26:43.699Z,7.70
2022-11-24T08:29:10.557Z,6.82
2022-11-24T08:31:38.938Z,7.22
2022-11-24T08:34:06.534Z,7.30
2022-11-24T08:36:34.062Z,7.00
2022-11-24T08:39:01.494Z,7.03
2022-11-24T08:41:29.431Z,6.63
2022-11-24T08:43:56.314Z,6.50
2022-11-24T08:46:24.005Z,6.13
2022-11-24T08:48:53.658Z,6.10
2022-11-24T08:51:23.690Z,6.82
2022-11-24T08:53:58.383Z,5.97
2022-11-24T08:56:27.195Z,5.63
2022-11-24T08:58:54.799Z,6.13
2022-11-24T09:01:22.761Z,6.45
2022-11-24T09:03:51.411Z,5.35
2022-11-24T09:06:24.769Z,5.40
2022-11-24T09:08:53.881Z,4.95
2022-11-24T09:11:23.523Z,4.40
2022-11-24T09:13:50.771Z,4.18
2022-11-24T09:16:20.055Z,4.38
2022-11-24T09:18:47.686Z,3.58
2022-11-24T09:21:19.755Z,3.63
2022-11-24T09:23:49.126Z,4.85
2022-11-24T09:26:17.495Z,4.43
2022-11-24T09:28:46.031Z,3.75
2022-11-24T09:31:15.048Z,4.05
2022-11-24T09:33:42.521Z,3.90
2022-11-24T09:36:09.669Z,3.78
2022-11-24T09:38:36.609Z,3.92
2022-11-24T09:41:37.567Z,3.88
2022-11-24T09:44:13.693Z,3.45
2022-11-24T09:46:51.635Z,4.20
2022-11-24T09:49:27.509Z,4.38
2022-11-24T09:51:56.297Z,4.47
2022-11-24T09:54:30.143Z,4.10
2022-11-24T09:57:01.110Z,3.55
2022-11-24T09:59:28.930Z,4.07
2022-11-24T10:01:56.772Z,3.13
2022-11-24T10:04:39.444Z,3.60
2022-11-24T10:07:24.293Z,3.25
2022-11-24T10:09:53.964Z,3.50
2022-11-24T10:12:55.007Z,3.25
2022-11-24T10:15:36.972Z,3.50
2022-11-24T10:18:22.263Z,3.60
2022-11-24T10:21:05.276Z,3.50
2022-11-24T10:23:50.778Z,3.38
2022-11-24T10:26:36.037Z,3.08
2022-11-24T10:29:26.080Z,3.80
2022-11-24T10:31:56.493Z,2.90
2022-11-24T10:34:40.460Z,3.20
2022-11-24T10:37:30.314Z,3.30
2022-11-24T10:40:40.504Z,2.42
2022-11-24T10:43:01.187Z,2.95
2022-11-24T10:45:29.032Z,3.05
2022-11-24T10:47:57.762Z,2.85
2022-11-24T10:50:27.211Z,3.55
2022-11-24T10:53:21.018Z,3.33
2022-11-24T10:55:56.883Z,2.67
2022-11-24T10:58:38.470Z,2.75
2022-11-24T11:01:14.310Z,3.73
2022-11-24T11:03:55.837Z,3.00
2022-11-24T11:06:31.263Z,3.20
2022-11-24T11:09:07.121Z,3.22
2022-11-24T11:11:35.310Z,2.85
2022-11-24T11:14:04.991Z,3.40
2022-11-24T11:16:43.465Z,3.13
2022-11-24T11:19:50.628Z,3.47
2022-11-24T11:22:26.675Z,3.22
2022-11-24T11:25:11.523Z,3.47
2022-11-24T11:27:40.034Z,4.03
2022-11-24T11:36:11.709Z,3.42
2022-11-24T11:38:40.229Z,4.40
2022-11-24T11:41:15.971Z,4.05
2022-11-24T11:43:45.698Z,3.40
2022-11-24T11:46:15.584Z,3.63
2022-11-24T11:48:46.439Z,3.72
2022-11-24T11:51:26.913Z,3.05
2022-11-24T11:54:17.390Z,3.08
2022-11-24T11:56:45.743Z,3.80
2022-11-24T11:59:44.838Z,3.45
2022-11-24T12:02:20.882Z,3.20
2022-11-24T12:04:56.818Z,3.50
2022-11-24T12:07:42.700Z,3.85
2022-11-24T12:10:33.542Z,4.28
2022-11-24T12:13:38.143Z,3.70
2022-11-24T12:16:16.906Z,3.97
2022-11-24T12:19:02.404Z,3.70
2022-11-24T12:21:47.397Z,3.40
2022-11-24T12:24:21.476Z,3.30
2022-11-24T12:27:03.202Z,3.65
2022-11-24T12:29:45.123Z,3.40
2022-11-24T12:32:32.031Z,3.75
2022-11-24T12:35:24.687Z,2.95
2022-11-24T12:38:10.510Z,3.15
2022-11-24T12:44:03.218Z,3.00
2022-11-24T12:46:47.870Z,2.90
2022-11-24T12:49:33.652Z,3.65
2022-11-24T12:52:06.596Z,3.25
2022-11-24T12:54:40.472Z,3.10
2022-11-24T12:57:17.726Z,4.32
2022-11-24T12:59:58.307Z,3.47
2022-11-24T13:02:56.423Z,3.50
2022-11-24T13:05:31.880Z,3.30
2022-11-24T13:08:02.507Z,3.53
2022-11-24T13:10:54.074Z,3.30
2022-11-24T13:13:17.811Z,3.60
2022-11-24T13:16:20.630Z,5.18
2022-11-24T13:18:53.605Z,3.25
2022-11-24T13:21:51.893Z,2.95
2022-11-24T13:24:19.885Z,4.05
2022-11-24T13:27:15.433Z,3.17
2022-11-24T13:29:47.411Z,3.53
2022-11-24T13:32:20.261Z,3.15
2022-11-24T13:34:54.761Z,3.45
2022-11-24T13:37:34.948Z,3.08
2022-11-24T13:40:14.221Z,3.55
2022-11-24T13:43:01.265Z,3.42
2022-11-24T13:45:41.091Z,2.95
2022-11-24T13:48:20.640Z,3.40
2022-11-24T13:50:51.112Z,3.47
2022-11-24T13:53:47.495Z,3.35
2022-11-24T13:56:14.265Z,3.00
2022-11-24T13:58:45.008Z,4.00
2022-11-24T14:01:28.531Z,3.05
2022-11-24T14:04:31.021Z,3.85
2022-11-24T14:09:52.029Z,3.33
2022-11-24T14:12:23.001Z,3.45
2022-11-24T14:14:52.166Z,3.83
2022-11-24T14:17:24.055Z,3.10
2022-11-24T14:19:53.567Z,2.45
2022-11-24T14:22:41.255Z,3.00
2022-11-24T14:25:22.781Z,2.92
2022-11-24T14:27:50.002Z,3.47
2022-11-24T14:30:20.563Z,3.50
2022-11-24T14:32:58.044Z,3.00
2022-11-24T14:35:26.421Z,3.03
2022-11-24T14:37:53.390Z,3.55
2022-11-24T14:40:39.259Z,2.40
2022-11-24T14:43:15.272Z,2.88
2022-11-24T14:46:07.245Z,2.97
2022-11-24T14:48:51.743Z,2.80
2022-11-24T14:51:23.282Z,6.07
2022-11-24T14:53:53.611Z,5.90
2022-11-24T14:56:39.544Z,3.53
2022-11-24T14:59:23.884Z,3.05
2022-11-24T15:01:50.700Z,3.05
2022-11-24T15:07:21.660Z,3.30
2022-11-24T15:09:50.529Z,3.08
2022-11-24T15:12:31.664Z,2.80
2022-11-24T15:15:07.195Z,3.55
2022-11-24T15:17:34.253Z,3.42
2022-11-24T15:20:10.739Z,3.42
2022-11-24T15:22:40.454Z,3.35
2022-11-24T15:25:33.779Z,3.63
2022-11-24T15:28:01.113Z,3.20
2022-11-24T15:30:28.393Z,2.92
2022-11-24T15:32:57.527Z,3.35
2022-11-24T15:35:26.791Z,3.40
2022-11-24T15:37:53.681Z,3.55
2022-11-24T15:40:20.728Z,3.40
2022-11-24T15:42:52.953Z,2.60
2022-11-24T15:45:21.238Z,3.47
2022-11-24T15:47:48.212Z,4.18
2022-11-24T15:50:15.517Z,3.72
2022-11-24T15:52:42.992Z,3.30
2022-11-24T15:55:18.274Z,3.50
2022-11-24T15:57:45.395Z,3.63
2022-11-24T16:00:20.460Z,4.20
2022-11-24T16:02:47.265Z,3.47
2022-11-24T16:05:15.109Z,3.28
2022-11-24T16:07:42.428Z,3.42
2022-11-24T16:10:25.954Z,3.65
2022-11-24T16:12:52.641Z,3.63
2022-11-24T16:15:19.565Z,3.35
2022-11-24T16:17:46.844Z,3.47
2022-11-24T16:20:13.967Z,3.50
2022-11-24T16:22:40.654Z,3.70
2022-11-24T16:25:07.883Z,3.35
2022-11-24T16:27:34.759Z,3.08
2022-11-24T16:30:01.715Z,3.47
2022-11-24T16:32:28.493Z,3.53
2022-11-24T16:34:55.189Z,3.45
2022-11-24T16:37:22.095Z,3.92
2022-11-24T16:39:50.303Z,4.10
2022-11-24T16:42:17.285Z,3.38
2022-11-24T16:44:44.121Z,2.75
2022-11-24T16:47:12.934Z,3.28
2022-11-24T16:49:39.770Z,3.58
2022-11-24T16:52:06.727Z,3.30
2022-11-24T16:54:33.790Z,3.75
2022-11-24T16:57:00.690Z,3.47
2022-11-24T16:59:27.427Z,3.38
2022-11-24T17:01:54.522Z,3.45
2022-11-24T17:04:21.311Z,3.75
2022-11-24T17:06:48.154Z,2.97
2022-11-24T17:09:14.940Z,4.63
2022-11-24T17:11:41.673Z,3.58
2022-11-24T17:14:09.947Z,4.30
2022-11-24T17:16:37.719Z,4.05
2022-11-24T17:19:05.540Z,3.45
2022-11-24T17:21:32.887Z,4.20
2022-11-24T17:24:02.539Z,4.10
2022-11-24T17:26:29.235Z,4.70
2022-11-24T17:28:56.388Z,4.28
2022-11-24T17:31:37.088Z,4.03
2022-11-24T17:34:05.727Z,4.60
2022-11-24T17:36:34.220Z,4.95
2022-11-24T17:39:04.718Z,4.15
2022-11-24T17:41:32.634Z,5.68
2022-11-24T17:43:59.750Z,5.07
2022-11-24T17:46:28.304Z,4.93
2022-11-24T17:48:55.663Z,5.10
2022-11-24T17:51:24.157Z,5.55
2022-11-24T17:53:52.397Z,4.97
2022-11-24T17:56:23.401Z,6.70
2022-11-24T17:58:58.829Z,5.35
2022-11-24T18:01:28.349Z,6.40
2022-11-24T18:03:55.058Z,5.50
2022-11-24T18:06:25.076Z,5.50
2022-11-24T18:08:53.054Z,5.70
2022-11-24T18:11:32.204Z,7.47
2022-11-24T18:14:02.307Z,5.93
2022-11-24T18:16:31.304Z,8.57
2022-11-24T18:19:08.430Z,5.15
2022-11-24T18:21:37.233Z,3.58
2022-11-24T18:24:04.336Z,4.10
2022-11-24T18:26:31.044Z,3.45
2022-11-24T18:28:57.677Z,3.22
2022-11-24T18:31:24.486Z,4.25
2022-11-24T18:33:51.326Z,3.17
2022-11-24T18:36:23.564Z,3.05
2022-11-24T18:38:56.923Z,3.45
2022-11-24T18:41:23.660Z,3.13
2022-11-24T18:43:50.533Z,3.60
2022-11-24T18:46:18.251Z,3.58
2022-11-24T18:48:45.842Z,3.78
2022-11-24T18:51:16.328Z,3.35
2022-11-24T18:53:44.816Z,3.50
2022-11-24T18:56:18.154Z,3.75
2022-11-24T18:58:45.149Z,3.08
2022-11-24T19:01:14.813Z,3.78
2022-11-24T19:03:48.960Z,3.75
2022-11-24T19:06:21.354Z,3.70
2022-11-24T19:08:48.877Z,4.68
2022-11-24T19:11:24.154Z,4.38
2022-11-24T19:13:51.377Z,3.63
2022-11-24T19:16:20.121Z,3.83
2022-11-24T19:18:53.625Z,3.58
2022-11-24T19:21:21.281Z,3.60
2022-11-24T19:23:49.036Z,4.13
2022-11-24T19:26:16.238Z,4.45
2022-11-24T19:28:44.075Z,3.45
2022-11-24T19:31:13.265Z,3.47
2022-11-24T19:33:40.555Z,3.65
2022-11-24T19:36:19.486Z,4.47
2022-11-24T19:38:54.473Z,3.42
2022-11-24T19:41:23.855Z,3.58
2022-11-24T19:43:53.354Z,2.65
2022-11-24T19:46:22.375Z,3.08
2022-11-24T19:48:51.230Z,3.50
2022-11-24T19:51:21.995Z,3.30
2022-11-24T19:53:48.893Z,3.00
2022-11-24T19:56:22.334Z,3.20
2022-11-24T19:58:50.288Z,2.85
2022-11-24T20:01:20.101Z,3.00
2022-11-24T20:03:49.428Z,3.80
2022-11-24T20:06:16.720Z,3.55
2022-11-24T20:08:43.721Z,3.53
2022-11-24T20:11:15.573Z,3.22
2022-11-24T20:13:43.854Z,3.65
2022-11-24T20:16:13.415Z,3.65
2022-11-24T20:18:43.744Z,4.10
2022-11-24T20:21:13.408Z,4.13
2022-11-24T20:23:40.727Z,3.30
2022-11-24T20:26:10.754Z,4.50
2022-11-24T20:28:38.053Z,4.97
2022-11-24T20:31:10.129Z,4.13
2022-11-24T20:33:37.318Z,3.13
2022-11-24T20:36:12.411Z,3.10
2022-11-24T20:38:40.410Z,3.45
2022-11-24T20:41:25.209Z,6.57
2022-11-24T20:43:53.498Z,3.33
2022-11-24T20:46:25.649Z,3.42
2022-11-24T20:48:54.331Z,4.13
2022-11-24T20:51:26.177Z,3.08
2022-11-24T20:53:58.494Z,2.72
2022-11-24T20:56:28.050Z,2.80
2022-11-24T20:58:55.891Z,2.30
2022-11-24T21:01:25.219Z,2.78
2022-11-24T21:03:55.404Z,3.72
2022-11-24T21:06:22.485Z,5.95
2022-11-24T21:08:50.597Z,3.80
2022-11-24T21:11:19.610Z,3.33
2022-11-24T21:13:48.794Z,2.90
2022-11-24T21:16:22.053Z,3.10
2022-11-24T21:18:53.352Z,3.40
2022-11-24T21:21:21.253Z,2.65
2022-11-24T21:23:48.705Z,3.05
2022-11-24T21:26:17.357Z,2.90
2022-11-24T21:28:45.841Z,3.30
2022-11-24T21:31:16.058Z,2.70
2022-11-24T21:33:48.101Z,2.67
2022-11-24T21:36:17.800Z,3.25
2022-11-24T21:38:44.497Z,3.67
2022-11-24T21:41:13.974Z,2.80
2022-11-24T21:43:40.882Z,2.92
2022-11-24T21:46:10.560Z,4.07
2022-11-24T21:48:38.486Z,3.20
2022-11-24T21:51:07.756Z,3.28
2022-11-24T21:53:36.389Z,3.90
2022-11-24T21:56:05.973Z,3.67
2022-11-24T21:58:33.798Z,3.20
2022-11-24T22:01:05.763Z,3.28
2022-11-24T22:03:32.555Z,2.88
2022-11-24T22:06:00.241Z,3.15
2022-11-24T22:08:28.711Z,3.20
2022-11-24T22:11:04.490Z,2.92
2022-11-24T22:13:31.798Z,2.88
2022-11-24T22:16:06.638Z,3.55
2022-11-24T22:18:35.266Z,2.70
2022-11-24T22:21:02.820Z,3.72
2022-11-24T22:23:30.764Z,2.95
2022-11-24T22:26:05.669Z,3.00
2022-11-24T22:28:33.878Z,3.83
2022-11-24T22:31:07.800Z,2.60
2022-11-24T22:33:34.769Z,2.95
2022-11-24T22:36:02.223Z,3.42
2022-11-24T22:38:30.093Z,3.10
2022-11-24T22:41:05.245Z,3.30
2022-11-24T22:43:34.324Z,3.55
2022-11-24T22:46:29.112Z,3.28
2022-11-24T22:48:59.626Z,3.15
2022-11-24T22:51:29.130Z,3.10
2022-11-24T22:53:58.589Z,2.85
2022-11-24T22:56:27.976Z,2.80
2022-11-24T22:58:54.850Z,4.05
2022-11-24T23:01:23.613Z,2.97
2022-11-24T23:03:53.772Z,3.38
2022-11-24T23:06:23.491Z,3.25
2022-11-24T23:08:51.077Z,2.80
2022-11-24T23:11:20.442Z,3.78
2022-11-24T23:13:47.811Z,3.58
2022-11-24T23:16:16.718Z,3.40
2022-11-24T23:18:47.794Z,3.38
2022-11-24T23:21:22.661Z,2.92
2022-11-24T23:23:49.958Z,3.45
2022-11-24T23:26:25.459Z,3.58
2022-11-24T23:28:52.480Z,3.63
2022-11-24T23:31:22.215Z,2.47
2022-11-24T23:33:48.866Z,3.22
2022-11-24T23:36:20.273Z,3.05
2022-11-24T23:38:48.460Z,2.75
2022-11-24T23:41:18.628Z,3.38
2022-11-24T23:43:45.352Z,3.03
2022-11-24T23:46:15.401Z,3.22
2022-11-24T23:48:42.862Z,3.17
2022-11-24T23:51:29.694Z,3.50
2022-11-24T23:53:57.289Z,3.15
2022-11-24T23:56:26.956Z,3.15
2022-11-24T23:58:53.725Z,4.10
